Time;durP1;ratioP1;P1;durP2;ratioP2;P2;SDS_P1;SDS_P2;PMS_P1;PMS_P2;Temp;Humidity;BMP_temperature;BMP_pressure;BME280_temperature;BME280_humidity;BME280_pressure;Samples;Min_cycle;Max_cycle;Signal;HPM_P1;HPM_P2
2022/07/24 00:00:58;;;;;;;3.72;1.20;;;;;;;;;;5090875;28;20485;-52
2022/07/24 00:06:19;;;;;;;2.20;1.10;;;;;;;;;;5094031;28;20109;-51
2022/07/24 00:08:46;;;;;;;2.65;1.10;;;;;;;;;;5093940;28;20085;-51
2022/07/24 00:11:16;;;;;;;2.97;1.20;;;;;;;;;;5093965;28;20540;-54
2022/07/24 00:13:45;;;;;;;2.75;1.00;;;;;;;;;;5091922;28;20044;-52
2022/07/24 00:16:18;;;;;;;3.45;0.95;;;;;;;;;;5094186;28;20052;-53
2022/07/24 00:18:49;;;;;;;3.58;1.70;;;;;;;;;;5093842;28;20048;-54
2022/07/24 00:21:18;;;;;;;1.83;0.93;;;;;;;;;;5089515;28;20163;-55
2022/07/24 00:23:48;;;;;;;4.75;1.38;;;;;;;;;;5072596;28;20487;-55
2022/07/24 00:26:16;;;;;;;3.45;1.20;;;;;;;;;;5073371;28;20063;-55
2022/07/24 00:31:28;;;;;;;2.60;1.35;;;;;;;;;;5093914;28;20062;-55
2022/07/24 00:33:57;;;;;;;2.05;1.10;;;;;;;;;;5093456;28;20088;-51
2022/07/24 00:36:34;;;;;;;4.40;1.08;;;;;;;;;;5093517;28;20381;-52
2022/07/24 00:39:03;;;;;;;3.35;1.15;;;;;;;;;;5093811;28;20131;-52
2022/07/24 00:41:31;;;;;;;4.60;1.30;;;;;;;;;;5093711;28;20158;-51
2022/07/24 00:44:07;;;;;;;2.80;1.10;;;;;;;;;;5093519;28;20048;-52
2022/07/24 00:46:35;;;;;;;2.53;1.10;;;;;;;;;;5093720;28;20048;-51
2022/07/24 00:49:04;;;;;;;2.80;1.10;;;;;;;;;;5093236;28;20048;-52
2022/07/24 00:51:35;;;;;;;2.03;1.00;;;;;;;;;;5089513;28;20053;-55
2022/07/24 00:54:03;;;;;;;3.72;1.38;;;;;;;;;;5072925;28;20456;-52
2022/07/24 00:56:33;;;;;;;2.08;1.15;;;;;;;;;;5073482;28;20059;-54
2022/07/24 00:59:10;;;;;;;2.22;1.10;;;;;;;;;;5073681;28;20052;-54
2022/07/24 01:01:37;;;;;;;3.78;1.00;;;;;;;;;;5086858;28;20135;-51
2022/07/24 01:04:08;;;;;;;2.58;0.95;;;;;;;;;;5087468;28;20048;-55
2022/07/24 01:06:45;;;;;;;3.53;1.20;;;;;;;;;;5093229;28;20056;-51
2022/07/24 01:09:13;;;;;;;3.63;1.02;;;;;;;;;;5095232;28;20121;-53
2022/07/24 01:11:40;;;;;;;2.15;1.00;;;;;;;;;;5097604;28;20074;-55
2022/07/24 01:14:07;;;;;;;2.35;1.05;;;;;;;;;;5097004;28;20361;-55
2022/07/24 01:16:36;;;;;;;2.95;1.10;;;;;;;;;;5097638;28;20060;-52
2022/07/24 01:19:03;;;;;;;3.13;1.10;;;;;;;;;;5097378;28;20052;-55
2022/07/24 01:21:34;;;;;;;1.73;0.80;;;;;;;;;;5097338;28;20052;-52
2022/07/24 01:24:02;;;;;;;2.97;0.98;;;;;;;;;;5096994;28;20443;-52
2022/07/24 01:26:32;;;;;;;2.80;0.90;;;;;;;;;;5097203;28;20066;-53
2022/07/24 01:28:59;;;;;;;1.83;0.70;;;;;;;;;;5100491;28;20119;-55
2022/07/24 01:31:25;;;;;;;1.20;0.70;;;;;;;;;;5117760;28;20112;-54
2022/07/24 01:33:52;;;;;;;1.40;0.80;;;;;;;;;;5104179;28;20044;-52
2022/07/24 01:36:22;;;;;;;2.33;0.80;;;;;;;;;;5113399;28;20058;-52
2022/07/24 01:38:50;;;;;;;5.18;1.40;;;;;;;;;;5117061;28;20632;-56
2022/07/24 01:41:19;;;;;;;2.58;0.80;;;;;;;;;;5117417;28;20075;-55
2022/07/24 01:43:59;;;;;;;1.55;0.70;;;;;;;;;;5114895;28;20456;-55
2022/07/24 01:46:30;;;;;;;2.17;1.10;;;;;;;;;;5096791;28;20473;-52
2022/07/24 01:49:00;;;;;;;1.90;0.80;;;;;;;;;;5096980;28;20079;-52
2022/07/24 01:51:28;;;;;;;1.35;0.63;;;;;;;;;;5091448;28;20432;-55
2022/07/24 01:53:59;;;;;;;1.10;0.70;;;;;;;;;;5076255;28;20048;-52
2022/07/24 01:56:28;;;;;;;0.85;0.52;;;;;;;;;;5076225;28;20056;-53
2022/07/24 01:58:58;;;;;;;1.65;1.10;;;;;;;;;;5076419;28;20064;-52
2022/07/24 02:01:29;;;;;;;1.58;0.55;;;;;;;;;;5076336;28;20056;-55
2022/07/24 02:04:00;;;;;;;1.13;0.68;;;;;;;;;;5091777;28;20667;-53
2022/07/24 02:06:29;;;;;;;1.05;0.60;;;;;;;;;;5096478;28;20044;-53
2022/07/24 02:09:02;;;;;;;2.53;0.70;;;;;;;;;;5096570;28;20094;-54
2022/07/24 02:11:28;;;;;;;3.45;0.80;;;;;;;;;;5096280;28;20091;-55
2022/07/24 02:13:57;;;;;;;0.80;0.60;;;;;;;;;;5095924;28;20048;-53
2022/07/24 02:16:25;;;;;;;1.40;0.63;;;;;;;;;;5096216;28;20052;-56
2022/07/24 02:18:54;;;;;;;7.03;0.60;;;;;;;;;;5096285;28;20089;-52
2022/07/24 02:21:21;;;;;;;1.25;0.50;;;;;;;;;;5095558;28;20407;-53
2022/07/24 02:23:48;;;;;;;1.27;0.52;;;;;;;;;;5095836;28;20044;-54
2022/07/24 02:26:23;;;;;;;0.77;0.40;;;;;;;;;;5094368;28;20056;-53
2022/07/24 02:28:51;;;;;;;1.15;0.47;;;;;;;;;;5095699;28;20113;-53
2022/07/24 02:31:19;;;;;;;1.38;0.50;;;;;;;;;;5095655;28;20052;-53
2022/07/24 02:33:49;;;;;;;2.45;0.40;;;;;;;;;;5095540;28;20047;-53
2022/07/24 02:38:58;;;;;;;1.05;0.35;;;;;;;;;;5095874;28;20074;-52
2022/07/24 02:41:36;;;;;;;0.73;0.40;;;;;;;;;;5095362;28;20055;-54
2022/07/24 02:44:11;;;;;;;0.80;0.40;;;;;;;;;;5094922;28;20436;-55
2022/07/24 02:46:41;;;;;;;0.85;0.82;;;;;;;;;;5095094;28;20051;-55
2022/07/24 02:49:11;;;;;;;0.60;0.40;;;;;;;;;;5095259;28;20083;-54
2022/07/24 02:51:41;;;;;;;1.20;0.52;;;;;;;;;;5095021;28;20086;-54
2022/07/24 02:54:09;;;;;;;0.70;0.40;;;;;;;;;;5093015;28;20064;-55
2022/07/24 02:56:44;;;;;;;0.45;0.40;;;;;;;;;;5093395;28;20052;-55
2022/07/24 02:59:12;;;;;;;2.20;0.57;;;;;;;;;;5095627;28;20083;-54
2022/07/24 03:01:41;;;;;;;0.95;0.43;;;;;;;;;;5094999;28;20059;-55
2022/07/24 03:04:09;;;;;;;1.17;0.50;;;;;;;;;;5095253;28;20462;-52
2022/07/24 03:06:36;;;;;;;2.25;0.70;;;;;;;;;;5095112;28;20528;-51
2022/07/24 03:09:06;;;;;;;1.10;0.60;;;;;;;;;;5094958;28;20395;-53
2022/07/24 03:11:35;;;;;;;1.02;0.70;;;;;;;;;;5095356;28;20058;-52
2022/07/24 03:14:13;;;;;;;1.10;0.70;;;;;;;;;;5094920;28;20536;-52
2022/07/24 03:16:42;;;;;;;1.27;0.73;;;;;;;;;;5095335;28;20052;-51
2022/07/24 03:19:21;;;;;;;1.67;1.15;;;;;;;;;;5093238;28;20195;-52
2022/07/24 03:21:49;;;;;;;2.22;1.02;;;;;;;;;;5094953;28;20052;-54
2022/07/24 03:24:24;;;;;;;2.90;1.40;;;;;;;;;;5094685;28;20059;-53
2022/07/24 03:26:54;;;;;;;3.78;1.25;;;;;;;;;;5094485;28;20052;-55
2022/07/24 03:29:29;;;;;;;3.00;1.60;;;;;;;;;;5094701;28;20067;-53
2022/07/24 03:32:00;;;;;;;4.10;1.90;;;;;;;;;;5094344;28;20091;-53
2022/07/24 03:34:30;;;;;;;3.38;1.88;;;;;;;;;;5094390;28;20461;-55
2022/07/24 03:37:00;;;;;;;5.15;1.92;;;;;;;;;;5094769;28;20059;-54
2022/07/24 03:39:28;;;;;;;3.78;2.20;;;;;;;;;;5094794;28;20056;-53
2022/07/24 03:41:58;;;;;;;3.78;2.30;;;;;;;;;;5094860;28;20047;-55
2022/07/24 03:44:31;;;;;;;4.28;1.92;;;;;;;;;;5094429;28;20449;-55
2022/07/24 03:46:57;;;;;;;3.90;1.95;;;;;;;;;;5094588;28;20109;-52
2022/07/24 03:49:25;;;;;;;4.78;2.50;;;;;;;;;;5094272;28;20056;-55
2022/07/24 03:51:55;;;;;;;4.35;2.15;;;;;;;;;;5093946;28;20675;-52
2022/07/24 03:54:23;;;;;;;4.40;2.47;;;;;;;;;;5091967;28;20036;-54
2022/07/24 03:56:50;;;;;;;6.35;2.30;;;;;;;;;;5084748;28;20055;-55
2022/07/24 03:59:18;;;;;;;4.80;2.15;;;;;;;;;;5082652;28;20058;-52
2022/07/24 04:01:57;;;;;;;4.22;2.60;;;;;;;;;;5073800;28;20458;-53
2022/07/24 04:04:27;;;;;;;3.95;2.65;;;;;;;;;;5073781;28;20484;-54
2022/07/24 04:06:55;;;;;;;4.60;2.85;;;;;;;;;;5073980;28;20052;-52
2022/07/24 04:09:24;;;;;;;4.80;2.65;;;;;;;;;;5073632;28;20048;-55
2022/07/24 04:11:52;;;;;;;3.15;2.45;;;;;;;;;;5073874;28;20049;-55
2022/07/24 04:14:20;;;;;;;5.40;3.15;;;;;;;;;;5073445;28;20049;-53
2022/07/24 04:16:51;;;;;;;6.65;3.80;;;;;;;;;;5073455;28;20056;-54
2022/07/24 04:19:19;;;;;;;5.20;2.92;;;;;;;;;;5073972;28;20067;-51
2022/07/24 04:21:48;;;;;;;5.28;2.70;;;;;;;;;;5073216;28;20453;-53
2022/07/24 04:24:14;;;;;;;4.45;2.50;;;;;;;;;;5073593;28;20044;-54
2022/07/24 04:26:42;;;;;;;3.60;2.05;;;;;;;;;;5072601;28;20048;-51
2022/07/24 04:29:12;;;;;;;5.20;2.63;;;;;;;;;;5084268;28;20091;-53
2022/07/24 04:31:41;;;;;;;3.55;1.98;;;;;;;;;;5093998;28;20055;-51
2022/07/24 04:34:09;;;;;;;5.00;2.72;;;;;;;;;;5092494;28;20055;-53
2022/07/24 04:36:37;;;;;;;4.32;2.50;;;;;;;;;;5112195;28;20110;-54
2022/07/24 04:39:04;;;;;;;4.90;2.38;;;;;;;;;;5113306;28;20057;-54
2022/07/24 04:41:32;;;;;;;6.25;2.42;;;;;;;;;;5114109;28;20146;-54
2022/07/24 04:43:59;;;;;;;5.47;2.67;;;;;;;;;;5109280;27;20058;-53
2022/07/24 04:46:35;;;;;;;5.57;2.55;;;;;;;;;;5093340;28;20083;-54
2022/07/24 04:49:05;;;;;;;5.55;2.50;;;;;;;;;;5084997;28;20052;-52
2022/07/24 04:51:45;;;;;;;4.25;2.20;;;;;;;;;;5086032;28;20139;-52
2022/07/24 04:54:15;;;;;;;2.95;2.25;;;;;;;;;;5089240;28;20043;-52
2022/07/24 04:56:45;;;;;;;3.45;2.20;;;;;;;;;;5093381;28;20052;-51
2022/07/24 04:59:15;;;;;;;3.15;2.00;;;;;;;;;;5093456;28;20048;-53
2022/07/24 05:01:43;;;;;;;4.32;2.17;;;;;;;;;;5092084;28;20052;-53
2022/07/24 05:04:10;;;;;;;3.45;2.10;;;;;;;;;;5091058;28;20083;-52
2022/07/24 05:06:47;;;;;;;3.55;2.13;;;;;;;;;;5072488;28;20068;-51
2022/07/24 05:09:17;;;;;;;5.68;2.20;;;;;;;;;;5076294;28;20049;-51
2022/07/24 05:11:49;;;;;;;4.47;2.10;;;;;;;;;;5072716;28;20064;-55
2022/07/24 05:14:17;;;;;;;2.80;1.80;;;;;;;;;;5073717;28;20560;-53
2022/07/24 05:16:44;;;;;;;4.35;2.08;;;;;;;;;;5092366;28;20109;-52
2022/07/24 05:19:10;;;;;;;4.03;2.17;;;;;;;;;;5092811;28;20070;-53
2022/07/24 05:21:48;;;;;;;3.42;2.03;;;;;;;;;;5092792;28;20090;-51
2022/07/24 05:24:17;;;;;;;4.43;2.15;;;;;;;;;;5092969;28;20431;-53
2022/07/24 05:26:44;;;;;;;4.40;2.00;;;;;;;;;;5092389;28;20080;-53
2022/07/24 05:29:12;;;;;;;2.85;2.03;;;;;;;;;;5081744;28;20135;-52
2022/07/24 05:31:42;;;;;;;2.38;1.70;;;;;;;;;;5072964;28;20048;-51
2022/07/24 05:34:14;;;;;;;4.32;2.10;;;;;;;;;;5088324;28;20063;-51
2022/07/24 05:36:49;;;;;;;3.05;1.77;;;;;;;;;;5092648;28;20620;-55
2022/07/24 05:39:19;;;;;;;4.45;1.80;;;;;;;;;;5092892;28;20063;-54
2022/07/24 05:41:48;;;;;;;4.22;1.92;;;;;;;;;;5092708;28;20511;-53
2022/07/24 05:44:16;;;;;;;4.07;1.90;;;;;;;;;;5093002;28;20067;-53
2022/07/24 05:46:46;;;;;;;3.25;1.45;;;;;;;;;;5092481;28;20044;-52
2022/07/24 05:49:16;;;;;;;2.42;1.60;;;;;;;;;;5092796;28;20129;-54
2022/07/24 05:51:45;;;;;;;2.47;1.52;;;;;;;;;;5092887;28;20052;-55
2022/07/24 05:54:15;;;;;;;4.15;1.80;;;;;;;;;;5092846;28;20055;-55
2022/07/24 05:56:44;;;;;;;2.70;1.70;;;;;;;;;;5091891;28;20133;-53
2022/07/24 05:59:12;;;;;;;3.58;1.70;;;;;;;;;;5094626;28;20060;-55
2022/07/24 06:01:39;;;;;;;3.33;1.33;;;;;;;;;;5096236;28;20503;-51
2022/07/24 06:04:09;;;;;;;3.17;1.48;;;;;;;;;;5093693;28;20075;-51
2022/07/24 06:06:39;;;;;;;3.60;1.98;;;;;;;;;;5096329;28;20047;-52
2022/07/24 06:09:16;;;;;;;2.80;1.60;;;;;;;;;;5095355;28;20052;-51
2022/07/24 06:11:42;;;;;;;2.83;1.65;;;;;;;;;;5096145;28;20087;-52
2022/07/24 06:14:08;;;;;;;2.38;1.50;;;;;;;;;;5095865;28;20360;-53
2022/07/24 06:16:38;;;;;;;3.08;1.52;;;;;;;;;;5096309;28;20071;-54
2022/07/24 06:19:14;;;;;;;2.47;1.60;;;;;;;;;;5081838;28;20132;-53
2022/07/24 06:21:42;;;;;;;2.15;1.73;;;;;;;;;;5075537;28;20067;-53
2022/07/24 06:24:25;;;;;;;2.47;1.38;;;;;;;;;;5075404;28;20160;-54
2022/07/24 06:26:55;;;;;;;3.83;1.88;;;;;;;;;;5092296;28;20456;-53
2022/07/24 06:29:23;;;;;;;3.42;1.95;;;;;;;;;;5095846;28;20075;-54
2022/07/24 06:31:50;;;;;;;3.53;1.70;;;;;;;;;;5096169;28;20056;-54
2022/07/24 06:34:20;;;;;;;3.22;1.80;;;;;;;;;;5095851;28;20044;-55
2022/07/24 06:36:47;;;;;;;3.90;1.90;;;;;;;;;;5075863;28;20056;-55
2022/07/24 06:39:17;;;;;;;2.17;1.60;;;;;;;;;;5074654;28;20060;-51
2022/07/24 06:41:46;;;;;;;5.22;2.58;;;;;;;;;;5075158;28;20084;-53
2022/07/24 06:44:23;;;;;;;2.17;1.52;;;;;;;;;;5080562;28;20040;-55
2022/07/24 06:46:53;;;;;;;2.90;1.40;;;;;;;;;;5095413;28;20071;-52
2022/07/24 06:49:21;;;;;;;2.15;1.35;;;;;;;;;;5094728;28;20206;-55
2022/07/24 06:51:48;;;;;;;2.70;1.40;;;;;;;;;;5076628;28;20048;-53
2022/07/24 06:54:31;;;;;;;3.20;1.25;;;;;;;;;;5078866;28;20136;-55
2022/07/24 06:56:57;;;;;;;6.43;2.80;;;;;;;;;;5084032;28;20060;-51
2022/07/24 06:59:27;;;;;;;8.70;1.48;;;;;;;;;;5088435;28;20465;-52
2022/07/24 07:01:53;;;;;;;3.47;1.40;;;;;;;;;;5074824;28;20139;-55
2022/07/24 07:04:24;;;;;;;2.05;1.27;;;;;;;;;;5074653;28;20135;-52
2022/07/24 07:06:54;;;;;;;2.10;1.42;;;;;;;;;;5073677;28;20087;-55
2022/07/24 07:09:39;;;;;;;3.42;1.42;;;;;;;;;;5073908;28;20499;-53
2022/07/24 07:12:09;;;;;;;2.90;1.40;;;;;;;;;;5075958;28;20055;-51
2022/07/24 07:14:50;;;;;;;3.22;1.40;;;;;;;;;;5092477;28;20052;-52
2022/07/24 07:17:20;;;;;;;1.65;1.33;;;;;;;;;;5089525;28;20062;-53
2022/07/24 07:19:51;;;;;;;4.15;1.27;;;;;;;;;;5115927;28;20052;-52
2022/07/24 07:22:18;;;;;;;4.60;1.35;;;;;;;;;;5100646;28;20133;-51
2022/07/24 07:24:48;;;;;;;5.00;1.50;;;;;;;;;;5108472;28;20044;-52
2022/07/24 07:27:18;;;;;;;2.42;1.20;;;;;;;;;;5103513;28;20055;-53
2022/07/24 07:29:45;;;;;;;2.72;1.40;;;;;;;;;;5104519;28;20098;-52
2022/07/24 07:32:13;;;;;;;2.47;1.10;;;;;;;;;;5115393;28;20079;-52
2022/07/24 07:34:40;;;;;;;3.58;1.60;;;;;;;;;;5107775;28;20048;-52
2022/07/24 07:37:10;;;;;;;3.15;1.40;;;;;;;;;;5105289;28;20047;-53
2022/07/24 07:39:39;;;;;;;2.13;1.40;;;;;;;;;;5114953;28;20464;-54
2022/07/24 07:42:08;;;;;;;2.28;1.40;;;;;;;;;;5114590;28;20052;-53
2022/07/24 07:44:38;;;;;;;2.30;1.27;;;;;;;;;;5110546;28;20513;-51
2022/07/24 07:47:05;;;;;;;2.72;1.30;;;;;;;;;;5107519;28;20380;-52
2022/07/24 07:49:33;;;;;;;1.90;1.13;;;;;;;;;;5113604;28;20051;-52
2022/07/24 07:52:03;;;;;;;2.85;1.40;;;;;;;;;;5106880;28;20058;-52
2022/07/24 07:54:32;;;;;;;2.28;1.35;;;;;;;;;;5113973;28;20062;-53
2022/07/24 07:56:59;;;;;;;3.35;1.40;;;;;;;;;;5087264;28;20053;-51
2022/07/24 07:59:29;;;;;;;3.08;1.27;;;;;;;;;;5104232;28;20048;-51
2022/07/24 08:02:08;;;;;;;3.83;1.40;;;;;;;;;;5100719;28;20715;-51
2022/07/24 08:04:39;;;;;;;6.05;1.55;;;;;;;;;;5090895;28;20055;-51
2022/07/24 08:07:05;;;;;;;5.00;1.60;;;;;;;;;;5113669;28;20047;-52
2022/07/24 08:09:42;;;;;;;5.30;1.73;;;;;;;;;;5113626;28;20044;-52
2022/07/24 08:12:09;;;;;;;4.90;1.80;;;;;;;;;;5114518;28;20048;-51
2022/07/24 08:14:40;;;;;;;5.07;1.50;;;;;;;;;;5087008;28;20473;-52
2022/07/24 08:17:15;;;;;;;2.45;1.35;;;;;;;;;;5114760;28;20043;-55
2022/07/24 08:19:45;;;;;;;3.97;1.70;;;;;;;;;;5108708;28;20051;-52
2022/07/24 08:22:15;;;;;;;3.00;1.60;;;;;;;;;;5107584;28;20057;-51
2022/07/24 08:24:43;;;;;;;3.28;1.55;;;;;;;;;;5114814;28;20055;-52
2022/07/24 08:27:13;;;;;;;2.83;1.27;;;;;;;;;;5114073;28;20052;-51
2022/07/24 08:29:42;;;;;;;2.80;1.67;;;;;;;;;;5107708;28;20495;-52
2022/07/24 08:32:25;;;;;;;3.08;1.60;;;;;;;;;;5114657;28;20063;-55
2022/07/24 08:34:56;;;;;;;3.33;1.50;;;;;;;;;;5081517;28;20127;-52
2022/07/24 08:37:24;;;;;;;4.25;1.52;;;;;;;;;;5106454;28;20056;-51
2022/07/24 08:39:54;;;;;;;3.78;1.48;;;;;;;;;;5113828;28;20059;-54
2022/07/24 08:42:31;;;;;;;1.92;1.40;;;;;;;;;;5113427;28;20055;-52
2022/07/24 08:45:02;;;;;;;3.30;1.73;;;;;;;;;;5110817;28;20048;-55
2022/07/24 08:47:33;;;;;;;2.55;1.30;;;;;;;;;;5113962;28;20048;-54
2022/07/24 08:50:09;;;;;;;9.38;2.63;;;;;;;;;;5113756;28;20462;-53
2022/07/24 08:52:45;;;;;;;2.50;1.40;;;;;;;;;;5085739;28;20354;-54
2022/07/24 08:55:17;;;;;;;2.42;1.25;;;;;;;;;;5092907;28;20047;-51
2022/07/24 08:57:45;;;;;;;2.58;1.45;;;;;;;;;;5081213;28;20083;-54
2022/07/24 09:00:15;;;;;;;2.90;1.48;;;;;;;;;;5080459;28;20048;-51
2022/07/24 09:02:52;;;;;;;2.60;1.63;;;;;;;;;;5089235;28;20048;-51
2022/07/24 09:05:21;;;;;;;5.78;1.52;;;;;;;;;;5074439;28;20044;-50
2022/07/24 09:07:52;;;;;;;3.65;1.75;;;;;;;;;;5076726;28;20498;-51
2022/07/24 09:10:19;;;;;;;2.45;1.45;;;;;;;;;;5085796;28;20160;-53
2022/07/24 09:12:48;;;;;;;2.95;1.40;;;;;;;;;;5088493;28;20048;-50
2022/07/24 09:15:15;;;;;;;1.92;1.40;;;;;;;;;;5091602;28;20054;-54
2022/07/24 09:17:51;;;;;;;6.13;1.65;;;;;;;;;;5073024;28;20067;-51
2022/07/24 09:20:17;;;;;;;3.22;1.42;;;;;;;;;;5072819;28;20056;-51
2022/07/24 09:22:47;;;;;;;3.60;1.55;;;;;;;;;;5072590;28;20056;-53
2022/07/24 09:25:16;;;;;;;1.70;1.27;;;;;;;;;;5071825;28;20058;-54
2022/07/24 09:27:46;;;;;;;2.90;1.40;;;;;;;;;;5076562;28;20074;-54
2022/07/24 09:30:23;;;;;;;2.28;1.60;;;;;;;;;;5084983;28;20131;-54
2022/07/24 09:32:56;;;;;;;2.60;1.60;;;;;;;;;;5085379;28;20101;-52
2022/07/24 09:35:24;;;;;;;3.10;1.55;;;;;;;;;;5091240;28;20044;-50
2022/07/24 09:38:01;;;;;;;2.45;1.38;;;;;;;;;;5080173;28;20139;-51
2022/07/24 09:40:30;;;;;;;4.80;1.98;;;;;;;;;;5074465;28;20084;-54
2022/07/24 09:43:00;;;;;;;4.03;1.40;;;;;;;;;;5075036;28;20102;-53
2022/07/24 09:45:28;;;;;;;3.72;1.73;;;;;;;;;;5090923;28;20740;-52
2022/07/24 09:48:05;;;;;;;4.07;1.60;;;;;;;;;;5094615;28;20048;-54
2022/07/24 09:50:32;;;;;;;3.53;1.83;;;;;;;;;;5095650;28;20055;-52
2022/07/24 09:53:01;;;;;;;2.63;1.48;;;;;;;;;;5095176;28;20075;-52
2022/07/24 09:55:27;;;;;;;3.90;1.65;;;;;;;;;;5095957;28;20334;-54
2022/07/24 09:57:56;;;;;;;2.80;1.95;;;;;;;;;;5079039;28;20044;-53
2022/07/24 10:00:38;;;;;;;3.15;1.20;;;;;;;;;;5074802;28;20061;-54
2022/07/24 10:03:14;;;;;;;2.40;1.35;;;;;;;;;;5075094;28;20048;-54
2022/07/24 10:05:43;;;;;;;2.80;1.55;;;;;;;;;;5074979;28;20408;-54
2022/07/24 10:08:16;;;;;;;3.83;1.80;;;;;;;;;;5075133;28;20167;-54
2022/07/24 10:10:46;;;;;;;3.10;1.63;;;;;;;;;;5082719;28;20539;-53
2022/07/24 10:13:14;;;;;;;3.05;1.60;;;;;;;;;;5095630;28;20048;-50
2022/07/24 10:15:50;;;;;;;2.83;1.40;;;;;;;;;;5096017;28;20055;-54
2022/07/24 10:18:22;;;;;;;3.13;1.55;;;;;;;;;;5096306;28;20051;-53
2022/07/24 10:20:52;;;;;;;19.20;3.35;;;;;;;;;;5096420;28;20052;-53
2022/07/24 10:23:28;;;;;;;3.40;1.35;;;;;;;;;;5096274;28;20051;-52
2022/07/24 10:25:56;;;;;;;2.33;1.52;;;;;;;;;;5096246;28;20087;-50
2022/07/24 10:28:39;;;;;;;3.63;1.70;;;;;;;;;;5096159;28;20047;-52
2022/07/24 10:31:10;;;;;;;2.95;1.50;;;;;;;;;;5075467;28;20073;-55
2022/07/24 10:33:46;;;;;;;3.47;1.73;;;;;;;;;;5086708;28;20055;-54
2022/07/24 10:36:19;;;;;;;2.67;1.60;;;;;;;;;;5095616;28;20123;-54
2022/07/24 10:38:55;;;;;;;3.25;1.33;;;;;;;;;;5096091;28;20210;-50
2022/07/24 10:41:24;;;;;;;4.05;1.85;;;;;;;;;;5094227;28;20442;-52
2022/07/24 10:44:10;;;;;;;4.97;2.00;;;;;;;;;;5095601;28;20052;-50
2022/07/24 10:46:53;;;;;;;3.75;1.52;;;;;;;;;;5095805;28;20056;-50
2022/07/24 10:49:38;;;;;;;3.00;1.52;;;;;;;;;;5095505;28;20059;-55
2022/07/24 10:52:14;;;;;;;3.78;1.60;;;;;;;;;;5095534;28;20150;-54
2022/07/24 10:54:55;;;;;;;2.42;1.30;;;;;;;;;;5095403;28;20446;-53
2022/07/24 10:57:54;;;;;;;3.20;1.77;;;;;;;;;;5083446;28;20051;-52
2022/07/24 11:00:39;;;;;;;2.75;1.73;;;;;;;;;;5075392;28;20056;-51
2022/07/24 11:03:08;;;;;;;;;;;;;;;;;;5075250;28;20370;-51
2022/07/24 11:05:45;;;;;;;5.00;1.50;;;;;;;;;;5075109;28;20276;-55
2022/07/24 11:08:48;;;;;;;3.20;1.58;;;;;;;;;;5092008;28;20463;-51
2022/07/24 11:11:25;;;;;;;3.67;1.60;;;;;;;;;;5095118;28;20481;-52
2022/07/24 11:13:56;;;;;;;3.42;1.65;;;;;;;;;;5094966;28;20062;-54
2022/07/24 11:16:26;;;;;;;5.82;1.50;;;;;;;;;;5095015;28;20109;-54
2022/07/24 11:19:16;;;;;;;4.55;1.75;;;;;;;;;;5093965;28;20055;-51
2022/07/24 11:21:46;;;;;;;3.38;1.77;;;;;;;;;;5094698;28;20346;-53
2022/07/24 11:24:20;;;;;;;3.30;1.55;;;;;;;;;;5094382;28;20059;-51
2022/07/24 11:26:49;;;;;;;4.20;1.98;;;;;;;;;;5094845;28;20054;-50
2022/07/24 11:29:21;;;;;;;3.95;1.65;;;;;;;;;;5094152;28;20364;-50
2022/07/24 11:31:53;;;;;;;4.95;1.70;;;;;;;;;;5094930;28;20048;-52
2022/07/24 11:34:23;;;;;;;4.95;1.88;;;;;;;;;;5094798;28;20059;-51
2022/07/24 11:36:52;;;;;;;7.32;1.92;;;;;;;;;;5074344;28;20049;-50
2022/07/24 11:39:28;;;;;;;5.10;1.90;;;;;;;;;;5073902;28;20052;-53
2022/07/24 11:42:05;;;;;;;3.47;1.83;;;;;;;;;;5074615;28;20083;-53
2022/07/24 11:44:35;;;;;;;3.65;1.83;;;;;;;;;;5082765;28;20047;-54
2022/07/24 11:47:10;;;;;;;2.63;1.63;;;;;;;;;;5094472;28;20047;-54
2022/07/24 11:49:47;;;;;;;3.42;1.70;;;;;;;;;;5094664;28;20129;-54
2022/07/24 11:52:34;;;;;;;3.15;1.83;;;;;;;;;;5094031;28;20052;-54
2022/07/24 11:55:16;;;;;;;3.72;1.73;;;;;;;;;;5094144;28;20048;-55
2022/07/24 11:57:52;;;;;;;3.30;1.80;;;;;;;;;;5079223;28;20730;-52
2022/07/24 12:00:21;;;;;;;2.50;1.90;;;;;;;;;;5073950;28;20055;-53
2022/07/24 12:02:49;;;;;;;3.20;1.77;;;;;;;;;;5077299;28;20040;-52
2022/07/24 12:05:27;;;;;;;3.83;2.13;;;;;;;;;;5094346;28;20048;-56
2022/07/24 12:07:57;;;;;;;2.63;1.58;;;;;;;;;;5094288;28;20062;-55
2022/07/24 12:10:29;;;;;;;3.22;1.80;;;;;;;;;;5094237;28;20044;-54
2022/07/24 12:12:59;;;;;;;3.28;1.55;;;;;;;;;;5094144;28;20048;-55
2022/07/24 12:15:26;;;;;;;2.67;1.80;;;;;;;;;;5073807;28;20055;-55
2022/07/24 12:17:55;;;;;;;3.05;1.70;;;;;;;;;;5073134;28;20052;-55
2022/07/24 12:20:24;;;;;;;27.60;2.78;;;;;;;;;;5073227;28;20483;-55
2022/07/24 12:22:55;;;;;;;5.53;2.17;;;;;;;;;;5081147;28;20056;-55
2022/07/24 12:25:31;;;;;;;4.32;1.80;;;;;;;;;;5093812;28;20052;-54
2022/07/24 12:28:14;;;;;;;7.07;2.05;;;;;;;;;;5091875;28;20155;-55
2022/07/24 12:30:44;;;;;;;4.18;2.00;;;;;;;;;;5110685;28;20055;-56
2022/07/24 12:33:22;;;;;;;13.48;2.25;;;;;;;;;;5106563;28;20044;-54
2022/07/24 12:35:56;;;;;;;2.88;1.98;;;;;;;;;;5105438;28;20079;-55
2022/07/24 12:38:32;;;;;;;2.50;1.80;;;;;;;;;;5113442;28;20055;-55
2022/07/24 12:41:12;;;;;;;4.72;2.03;;;;;;;;;;5113460;28;20484;-53
2022/07/24 12:44:05;;;;;;;3.97;2.00;;;;;;;;;;5112476;28;20549;-55
2022/07/24 12:46:34;;;;;;;5.35;2.00;;;;;;;;;;5093785;28;20044;-55
2022/07/24 12:49:14;;;;;;;2.22;1.67;;;;;;;;;;5093354;28;20616;-54
2022/07/24 12:52:13;;;;;;;3.38;1.98;;;;;;;;;;5087538;28;20349;-56
2022/07/24 12:54:48;;;;;;;4.97;2.30;;;;;;;;;;5073070;28;20063;-53
2022/07/24 12:57:15;;;;;;;2.60;1.90;;;;;;;;;;5083869;28;20445;-55
2022/07/24 12:59:46;;;;;;;2.85;1.75;;;;;;;;;;5093071;28;20070;-52
2022/07/24 13:02:19;;;;;;;2.38;1.65;;;;;;;;;;5093608;28;20047;-54
2022/07/24 13:04:49;;;;;;;4.43;1.80;;;;;;;;;;5092407;28;20051;-56
2022/07/24 13:07:17;;;;;;;2.90;1.83;;;;;;;;;;5093388;28;20059;-52
2022/07/24 13:09:44;;;;;;;2.92;1.80;;;;;;;;;;5092407;28;20369;-52
2022/07/24 13:12:14;;;;;;;2.55;1.50;;;;;;;;;;5093485;28;20044;-55
2022/07/24 13:14:50;;;;;;;2.78;1.40;;;;;;;;;;5093406;28;20056;-54
2022/07/24 13:17:20;;;;;;;2.95;1.67;;;;;;;;;;5093046;28;20338;-52
2022/07/24 13:19:50;;;;;;;5.07;2.13;;;;;;;;;;5093815;28;20108;-52
2022/07/24 13:22:17;;;;;;;4.57;1.88;;;;;;;;;;5092935;28;20388;-52
2022/07/24 13:24:47;;;;;;;4.78;2.40;;;;;;;;;;5093008;28;20424;-53
2022/07/24 13:27:18;;;;;;;2.90;1.65;;;;;;;;;;5093278;28;20113;-52
2022/07/24 13:29:55;;;;;;;2.40;1.70;;;;;;;;;;5092783;28;20060;-52
2022/07/24 13:32:21;;;;;;;5.28;1.90;;;;;;;;;;5093274;28;20056;-52
2022/07/24 13:34:58;;;;;;;4.68;2.00;;;;;;;;;;5093038;28;20048;-52
2022/07/24 13:37:28;;;;;;;2.40;1.70;;;;;;;;;;5093002;28;20043;-52
2022/07/24 13:39:58;;;;;;;2.88;1.85;;;;;;;;;;5092977;28;20058;-51
2022/07/24 13:42:28;;;;;;;5.95;2.35;;;;;;;;;;5093109;28;20086;-53
2022/07/24 13:44:56;;;;;;;3.92;1.77;;;;;;;;;;5092929;28;20062;-53
2022/07/24 13:47:26;;;;;;;3.63;1.95;;;;;;;;;;5093034;28;20074;-52
2022/07/24 13:49:56;;;;;;;3.50;1.55;;;;;;;;;;5072764;28;20048;-54
2022/07/24 13:52:32;;;;;;;3.95;1.80;;;;;;;;;;5083824;28;20062;-55
2022/07/24 13:55:01;;;;;;;3.38;2.05;;;;;;;;;;5092711;28;20127;-55
2022/07/24 13:57:30;;;;;;;3.28;1.90;;;;;;;;;;5092931;28;20040;-54
2022/07/24 14:00:02;;;;;;;4.55;2.28;;;;;;;;;;5092885;28;20051;-52
2022/07/24 14:02:37;;;;;;;3.72;1.80;;;;;;;;;;5093112;28;20063;-55
2022/07/24 14:05:04;;;;;;;2.50;1.83;;;;;;;;;;5092821;28;20052;-52
2022/07/24 14:07:33;;;;;;;2.85;2.03;;;;;;;;;;5092869;28;20073;-54
2022/07/24 14:10:00;;;;;;;3.15;1.92;;;;;;;;;;5092864;28;20055;-52
2022/07/24 14:12:31;;;;;;;3.17;2.00;;;;;;;;;;5092949;28;20071;-53
2022/07/24 14:15:00;;;;;;;5.50;1.90;;;;;;;;;;5092735;28;20107;-55
2022/07/24 14:17:31;;;;;;;3.75;1.85;;;;;;;;;;5096219;28;20040;-55
2022/07/24 14:19:57;;;;;;;3.88;1.88;;;;;;;;;;5096363;28;20040;-54
2022/07/24 14:22:25;;;;;;;17.45;2.90;;;;;;;;;;5096143;28;20048;-53
2022/07/24 14:24:55;;;;;;;4.30;2.03;;;;;;;;;;5095916;28;20487;-56
2022/07/24 14:27:23;;;;;;;3.72;2.15;;;;;;;;;;5095942;28;20044;-55
2022/07/24 14:29:50;;;;;;;4.38;2.30;;;;;;;;;;5095782;28;20064;-54
2022/07/24 14:32:20;;;;;;;5.30;2.50;;;;;;;;;;5095943;28;20052;-54
2022/07/24 14:34:48;;;;;;;2.65;2.00;;;;;;;;;;5082797;28;20039;-54
2022/07/24 14:37:18;;;;;;;4.75;2.17;;;;;;;;;;5115949;28;20079;-54
2022/07/24 14:39:58;;;;;;;5.30;1.60;;;;;;;;;;5116041;28;20058;-53
2022/07/24 14:42:25;;;;;;;3.85;1.83;;;;;;;;;;5116426;28;20051;-53
2022/07/24 14:44:53;;;;;;;3.88;2.22;;;;;;;;;;5104953;28;20059;-56
2022/07/24 14:47:30;;;;;;;2.83;1.90;;;;;;;;;;5095906;28;20055;-54
2022/07/24 14:50:00;;;;;;;3.92;2.38;;;;;;;;;;5075286;28;20052;-55
2022/07/24 14:52:29;;;;;;;2.92;1.75;;;;;;;;;;5086214;28;20071;-55
2022/07/24 14:54:59;;;;;;;3.97;2.03;;;;;;;;;;5095326;28;20483;-55
2022/07/24 14:57:29;;;;;;;2.72;1.52;;;;;;;;;;5095234;28;20507;-51
2022/07/24 14:59:59;;;;;;;3.58;1.80;;;;;;;;;;5095617;28;20048;-55
2022/07/24 15:02:34;;;;;;;4.80;1.70;;;;;;;;;;5095508;28;20044;-54
2022/07/24 15:05:00;;;;;;;;;;;;;;;;;;5096088;28;20062;-55
2022/07/24 15:07:30;;;;;;;1.95;1.27;;;;;;;;;;5095351;28;20604;-52
2022/07/24 15:09:58;;;;;;;5.38;1.83;;;;;;;;;;5095176;28;20048;-54
2022/07/24 15:12:33;;;;;;;3.22;1.75;;;;;;;;;;5095407;28;20048;-55
2022/07/24 15:15:04;;;;;;;2.08;1.63;;;;;;;;;;5094976;28;20358;-55